Clementsville, North Dakota
Current Conditions -  °F | °C
As of 11:56 PM on Saturday 25 Oct 2014 (Local Time) from KJMS Reporting Station
Clear Clear  
Wind Chill: 32°   Ceiling: Unl
Heat Index: 38°   Visibility: 10mi
Dew Point: 29°   Wind: 8mph
Humidity: 70%   Direction: 170°S
Pressure: 29.97"   Gusts: NA
Location:  47.1102°N, 98.4039°W
Report Text: KJMS 260456Z AUTO 17007KT 10SM CLR 03/M02 A2997 RMK AO2 SLP157 T00331017
Loading
Personal Weather Stations






























Interactive Weather Map
Tropical Storm Tracking
New forecast layout! Learn more

10-Day Weather Forecast

Advertisements
Track Severe Weather on mobile